Time;durP1;ratioP1;P1;durP2;ratioP2;P2;SDS_P1;SDS_P2;PMS_P1;PMS_P2;Temp;Humidity;BMP_temperature;BMP_pressure;BME280_temperature;BME280_humidity;BME280_pressure;Samples;Min_cycle;Max_cycle;Signal;HPM_P1;HPM_P2
2022/06/24 00:01:28;;;;;;;12.88;6.13;;;25.90;96.70;;;;;;4942436;29;20489;-85
2022/06/24 00:03:57;;;;;;;12.00;5.93;;;26.00;96.70;;;;;;4943392;28;20396;-85
2022/06/24 00:06:41;;;;;;;12.63;5.70;;;25.90;96.70;;;;;;4911127;28;20146;-84
2022/06/24 00:09:11;;;;;;;14.32;5.68;;;25.90;96.70;;;;;;4942712;28;20856;-84
2022/06/24 00:11:41;;;;;;;14.15;6.45;;;25.90;96.70;;;;;;4926498;29;20111;-84
2022/06/24 00:14:11;;;;;;;9.02;4.97;;;25.90;96.70;;;;;;4946906;28;20579;-85
2022/06/24 00:16:56;;;;;;;14.52;5.70;;;25.90;96.70;;;;;;4927880;29;20051;-84
2022/06/24 00:19:25;;;;;;;13.45;5.45;;;25.90;96.70;;;;;;4943942;28;20086;-84
2022/06/24 00:22:03;;;;;;;11.43;5.45;;;25.90;96.70;;;;;;4927535;29;20146;-84
2022/06/24 00:24:33;;;;;;;9.13;4.53;;;25.90;96.70;;;;;;4943992;28;20456;-84
2022/06/24 00:27:04;;;;;;;12.48;4.70;;;25.90;96.70;;;;;;4938916;28;20059;-84
2022/06/24 00:29:33;;;;;;;11.45;5.65;;;25.90;96.70;;;;;;4924922;29;20058;-84
2022/06/24 00:32:06;;;;;;;14.38;5.90;;;25.90;96.70;;;;;;4925220;29;20044;-84
2022/06/24 00:34:35;;;;;;;12.02;5.70;;;25.90;96.70;;;;;;4907194;29;20059;-84
2022/06/24 00:37:21;;;;;;;11.57;5.65;;;25.90;96.70;;;;;;4924989;29;20039;-85
2022/06/24 00:39:50;;;;;;;13.45;6.53;;;25.80;96.70;;;;;;4938826;29;20070;-84
2022/06/24 00:42:32;;;;;;;10.27;5.25;;;25.80;96.70;;;;;;4938437;29;20746;-85
2022/06/24 00:45:12;;;;;;;9.63;4.65;;;25.70;96.70;;;;;;4919672;29;20060;-84
2022/06/24 00:47:42;;;;;;;7.45;5.13;;;25.80;96.70;;;;;;4934951;28;20829;-84
2022/06/24 00:50:20;;;;;;;11.25;4.68;;;25.70;96.70;;;;;;4922778;29;20134;-84
2022/06/24 00:52:50;;;;;;;11.60;4.93;;;25.70;96.70;;;;;;4923627;29;20039;-84
2022/06/24 00:55:20;;;;;;;11.68;5.13;;;25.80;96.70;;;;;;4924186;29;20491;-83
2022/06/24 00:57:49;;;;;;;11.60;4.80;;;25.70;96.70;;;;;;4923441;29;20066;-83
2022/06/24 01:00:18;;;;;;;10.77;4.82;;;25.70;96.70;;;;;;4924553;29;20055;-84
2022/06/24 01:02:47;;;;;;;7.47;4.25;;;25.60;96.70;;;;;;4940594;28;20044;-84
2022/06/24 01:05:18;;;;;;;11.05;5.53;;;25.60;96.70;;;;;;4922819;29;20039;-84
2022/06/24 01:07:46;;;;;;;12.32;5.45;;;25.60;96.70;;;;;;4923098;29;20051;-84
2022/06/24 01:10:14;;;;;;;11.35;5.32;;;25.50;96.70;;;;;;4923271;29;20050;-84
2022/06/24 01:12:42;;;;;;;11.77;5.80;;;25.50;96.70;;;;;;4928921;29;20047;-84
2022/06/24 01:15:12;;;;;;;14.73;5.50;;;25.50;96.70;;;;;;4924105;28;20048;-83
2022/06/24 01:17:40;;;;;;;11.57;5.30;;;25.40;96.70;;;;;;4923002;29;20052;-83
2022/06/24 01:20:10;;;;;;;9.30;4.97;;;25.30;96.70;;;;;;4921091;29;20831;-84
2022/06/24 01:22:40;;;;;;;9.40;5.05;;;25.30;96.70;;;;;;4922790;29;20047;-84
2022/06/24 01:25:10;;;;;;;10.82;5.38;;;25.30;96.70;;;;;;4934652;28;20050;-84
2022/06/24 01:27:53;;;;;;;10.93;5.13;;;25.20;96.70;;;;;;4937888;29;20064;-84
2022/06/24 01:30:21;;;;;;;12.40;5.53;;;25.10;96.70;;;;;;4938333;28;20426;-83
2022/06/24 01:32:49;;;;;;;13.07;5.90;;;25.10;96.70;;;;;;4937732;28;20043;-84
2022/06/24 01:35:18;;;;;;;7.25;4.97;;;25.00;96.70;;;;;;4939452;28;20054;-84
2022/06/24 01:37:47;;;;;;;9.30;5.53;;;25.00;96.70;;;;;;4922704;29;20048;-83
2022/06/24 01:40:15;;;;;;;10.52;5.28;;;25.00;96.70;;;;;;4925515;28;20052;-84
2022/06/24 01:42:43;;;;;;;12.98;5.45;;;25.00;96.70;;;;;;4921504;29;20581;-84
2022/06/24 01:45:11;;;;;;;11.40;4.95;;;25.00;96.70;;;;;;4922045;29;20620;-83
2022/06/24 01:47:39;;;;;;;15.00;4.97;;;25.00;96.70;;;;;;4922699;29;20055;-84
2022/06/24 01:50:08;;;;;;;8.65;4.38;;;25.00;96.70;;;;;;4925357;29;20043;-83
2022/06/24 01:52:36;;;;;;;10.20;5.25;;;25.00;96.70;;;;;;4922648;28;20126;-83
2022/06/24 01:55:06;;;;;;;9.70;5.07;;;25.00;96.70;;;;;;4920291;29;20063;-84
2022/06/24 01:57:34;;;;;;;12.52;5.47;;;25.00;96.70;;;;;;4936337;28;20104;-83
2022/06/24 02:00:03;;;;;;;15.85;5.28;;;25.10;96.70;;;;;;4923725;29;20071;-83
2022/06/24 02:02:33;;;;;;;11.38;5.70;;;25.10;96.70;;;;;;4927259;28;20058;-84
2022/06/24 02:05:02;;;;;;;11.38;5.25;;;25.20;96.70;;;;;;4920568;29;20056;-84
2022/06/24 02:07:30;;;;;;;10.05;4.82;;;25.10;96.70;;;;;;4907701;29;20099;-84
2022/06/24 02:15:35;;;;;;;10.80;4.90;;;25.00;96.70;;;;;;4922142;29;20684;-84
2022/06/24 02:18:03;;;;;;;11.45;5.35;;;24.90;96.70;;;;;;4919047;29;20486;-83
2022/06/24 02:20:31;;;;;;;9.95;4.53;;;24.90;96.70;;;;;;4921315;29;20454;-83
2022/06/24 02:22:59;;;;;;;11.30;4.88;;;24.90;96.70;;;;;;4919317;29;20066;-83
2022/06/24 02:25:27;;;;;;;12.48;5.40;;;24.90;96.70;;;;;;4936507;28;20051;-83
2022/06/24 02:27:57;;;;;;;11.85;5.32;;;24.90;96.70;;;;;;4936044;29;20069;-82
2022/06/24 02:30:26;;;;;;;9.13;5.50;;;24.80;96.70;;;;;;4921926;29;20062;-83
2022/06/24 02:32:54;;;;;;;11.40;5.22;;;24.70;96.70;;;;;;4922575;29;20103;-83
2022/06/24 02:35:22;;;;;;;13.20;5.15;;;24.70;96.70;;;;;;4923720;29;20075;-85
2022/06/24 02:37:50;;;;;;;11.35;5.30;;;24.60;96.70;;;;;;4922045;29;20494;-85
2022/06/24 02:43:12;;;;;;;10.90;4.60;;;24.60;96.70;;;;;;4936849;29;20553;-84
2022/06/24 02:45:40;;;;;;;10.25;4.57;;;24.70;96.70;;;;;;4923855;29;20074;-84
2022/06/24 02:48:08;;;;;;;11.68;4.70;;;24.60;96.70;;;;;;4921346;29;20059;-84
2022/06/24 02:50:41;;;;;;;10.45;4.65;;;24.60;96.70;;;;;;4937563;28;20047;-84
2022/06/24 02:53:14;;;;;;;12.07;5.18;;;24.60;96.70;;;;;;4924141;29;20891;-84
2022/06/24 02:55:44;;;;;;;9.40;4.70;;;24.70;96.70;;;;;;4923652;29;20051;-84
2022/06/24 02:58:14;;;;;;;9.70;4.70;;;24.70;96.70;;;;;;4925884;29;20106;-84
2022/06/24 03:00:42;;;;;;;12.00;4.78;;;24.70;96.70;;;;;;4935983;28;20056;-84
2022/06/24 03:03:11;;;;;;;8.32;4.88;;;24.70;96.70;;;;;;4921209;29;20044;-84
2022/06/24 03:05:39;;;;;;;12.27;5.10;;;24.60;96.70;;;;;;4927105;29;20052;-83
2022/06/24 03:08:09;;;;;;;11.38;5.18;;;24.60;96.70;;;;;;4936490;28;20047;-84
2022/06/24 03:10:37;;;;;;;12.05;4.82;;;24.50;96.70;;;;;;4935923;28;20062;-84
2022/06/24 03:13:05;;;;;;;12.00;4.57;;;24.60;96.70;;;;;;4922118;29;20064;-84
2022/06/24 03:15:35;;;;;;;10.95;5.10;;;24.60;96.70;;;;;;4926285;29;20490;-84
2022/06/24 03:18:03;;;;;;;10.55;4.82;;;24.60;96.70;;;;;;4940372;28;20457;-83
2022/06/24 03:20:32;;;;;;;11.95;5.50;;;24.60;96.70;;;;;;4925243;29;20050;-84
2022/06/24 03:23:00;;;;;;;13.50;5.55;;;24.60;96.70;;;;;;4923961;29;20055;-84
2022/06/24 03:25:28;;;;;;;13.55;5.25;;;24.50;96.70;;;;;;4924075;29;20589;-84
2022/06/24 03:27:56;;;;;;;13.48;5.63;;;24.50;96.70;;;;;;4923326;29;20483;-83
2022/06/24 03:30:24;;;;;;;8.70;5.35;;;24.60;96.70;;;;;;4938957;28;20044;-84
2022/06/24 03:32:53;;;;;;;11.60;5.55;;;24.60;96.70;;;;;;4927406;29;20525;-84
2022/06/24 03:35:21;;;;;;;13.38;4.80;;;24.60;96.70;;;;;;4920769;29;20052;-84
2022/06/24 03:37:49;;;;;;;10.02;4.93;;;24.60;96.70;;;;;;4925761;29;20051;-84
2022/06/24 03:40:17;;;;;;;8.43;4.90;;;24.60;96.70;;;;;;4923683;29;20395;-84
2022/06/24 03:42:45;;;;;;;9.75;5.13;;;24.50;96.70;;;;;;4924541;28;20044;-83
2022/06/24 03:45:13;;;;;;;12.70;5.47;;;24.50;96.70;;;;;;4924692;29;20047;-85
2022/06/24 03:47:41;;;;;;;10.18;5.20;;;24.50;96.70;;;;;;4939280;29;20054;-85
2022/06/24 03:50:11;;;;;;;13.18;6.13;;;24.60;96.70;;;;;;4939793;28;20055;-84
2022/06/24 03:52:39;;;;;;;10.85;5.57;;;24.50;96.70;;;;;;4924356;29;20557;-84
2022/06/24 03:55:07;;;;;;;13.57;5.57;;;24.50;96.70;;;;;;4926075;29;20043;-83
2022/06/24 03:57:37;;;;;;;10.23;5.20;;;24.40;96.70;;;;;;4940721;29;20059;-83
2022/06/24 04:00:07;;;;;;;10.27;4.97;;;24.40;96.70;;;;;;4937785;28;20679;-84
2022/06/24 04:02:38;;;;;;;13.23;5.30;;;24.30;96.70;;;;;;4923530;29;20339;-84
2022/06/24 04:05:17;;;;;;;11.75;4.95;;;24.40;96.70;;;;;;4939526;28;20114;-85
2022/06/24 04:07:49;;;;;;;10.38;4.97;;;24.40;96.70;;;;;;4926447;28;20056;-84
2022/06/24 04:10:18;;;;;;;13.48;4.90;;;24.50;96.70;;;;;;4940034;28;20640;-84
2022/06/24 04:12:46;;;;;;;12.73;5.18;;;24.50;96.70;;;;;;4926168;29;20051;-84
2022/06/24 04:15:14;;;;;;;11.63;5.22;;;24.50;96.70;;;;;;4924353;29;20506;-84
2022/06/24 04:17:43;;;;;;;10.60;4.82;;;24.50;96.70;;;;;;4924867;29;20067;-85
2022/06/24 04:20:13;;;;;;;10.45;4.90;;;24.50;96.70;;;;;;4923519;29;20557;-84
2022/06/24 04:22:42;;;;;;;8.45;5.05;;;24.50;96.70;;;;;;4927404;28;20095;-85
2022/06/24 04:25:11;;;;;;;9.93;4.72;;;24.60;96.70;;;;;;4929842;29;20103;-84
2022/06/24 04:27:40;;;;;;;10.73;5.22;;;24.70;96.70;;;;;;4939661;28;20066;-84
2022/06/24 04:30:10;;;;;;;11.65;5.35;;;24.70;96.70;;;;;;4933932;29;20047;-84
2022/06/24 04:32:38;;;;;;;10.90;5.10;;;24.70;96.70;;;;;;4948297;29;20047;-85
2022/06/24 04:35:07;;;;;;;12.38;5.07;;;24.70;96.70;;;;;;4949282;28;20094;-84
2022/06/24 04:37:36;;;;;;;13.38;5.85;;;24.70;96.70;;;;;;4915949;29;20074;-84
2022/06/24 04:40:08;;;;;;;9.77;6.22;;;24.70;96.70;;;;;;4932383;28;20150;-84
2022/06/24 04:42:36;;;;;;;13.43;6.35;;;24.70;96.70;;;;;;4954042;28;20050;-85
2022/06/24 04:45:05;;;;;;;13.23;6.63;;;24.70;96.70;;;;;;4940029;28;20516;-85
2022/06/24 04:47:33;;;;;;;14.20;7.28;;;24.70;96.70;;;;;;4936903;29;20086;-86
2022/06/24 04:50:01;;;;;;;23.02;7.55;;;24.70;96.70;;;;;;4951158;28;20050;-83
2022/06/24 04:52:29;;;;;;;14.35;6.20;;;24.80;96.70;;;;;;4932786;28;20233;-84
2022/06/24 04:54:58;;;;;;;17.25;6.68;;;24.90;96.70;;;;;;4934114;28;20066;-83
2022/06/24 04:57:27;;;;;;;15.48;6.53;;;24.90;96.70;;;;;;4944641;28;20075;-83
2022/06/24 04:59:55;;;;;;;14.77;8.05;;;25.00;96.70;;;;;;4948403;28;20226;-83
2022/06/24 05:02:23;;;;;;;14.63;7.15;;;24.90;96.70;;;;;;4918359;29;20407;-83
2022/06/24 05:04:51;;;;;;;16.00;6.93;;;25.00;96.70;;;;;;4931019;28;20047;-83
2022/06/24 05:07:19;;;;;;;16.17;7.38;;;25.10;96.70;;;;;;4936436;28;20054;-84
2022/06/24 05:09:47;;;;;;;17.33;7.00;;;25.10;96.70;;;;;;4949490;28;20051;-83
2022/06/24 05:12:31;;;;;;;14.00;6.22;;;25.20;96.70;;;;;;4934095;28;20051;-83
2022/06/24 05:15:00;;;;;;;13.23;6.38;;;25.10;96.70;;;;;;4932473;28;20436;-84
2022/06/24 05:17:29;;;;;;;15.30;6.53;;;25.00;96.70;;;;;;4930888;28;20515;-83
2022/06/24 05:19:57;;;;;;;13.07;6.85;;;25.20;96.70;;;;;;4950461;28;20043;-83
2022/06/24 05:22:25;;;;;;;13.57;7.00;;;25.20;96.70;;;;;;4931302;29;20146;-83
2022/06/24 05:24:52;;;;;;;18.48;7.72;;;25.10;96.70;;;;;;4932257;29;20450;-83
2022/06/24 05:27:20;;;;;;;16.27;6.85;;;25.00;96.70;;;;;;4930695;29;20133;-82
2022/06/24 05:29:50;;;;;;;16.02;7.47;;;25.10;96.70;;;;;;4931390;28;20090;-83
2022/06/24 05:32:17;;;;;;;15.13;7.57;;;25.20;96.70;;;;;;4927453;29;20044;-84
2022/06/24 05:34:45;;;;;;;18.27;8.65;;;25.30;96.70;;;;;;4942664;28;20611;-84
2022/06/24 05:37:13;;;;;;;15.40;8.20;;;25.30;96.70;;;;;;4929001;29;20039;-83
2022/06/24 05:39:43;;;;;;;14.77;8.50;;;25.40;96.70;;;;;;4927617;29;20421;-82
2022/06/24 05:42:11;;;;;;;12.60;7.53;;;25.40;96.70;;;;;;4930576;28;20106;-83
2022/06/24 05:44:39;;;;;;;14.32;7.97;;;25.40;96.70;;;;;;4928927;29;20047;-84
2022/06/24 05:47:08;;;;;;;21.02;9.18;;;25.50;96.70;;;;;;4943552;28;20557;-83
2022/06/24 05:49:36;;;;;;;16.95;7.60;;;25.60;96.70;;;;;;4930534;29;20107;-83
2022/06/24 05:52:05;;;;;;;15.63;7.30;;;25.60;96.70;;;;;;4932742;29;20106;-83
2022/06/24 05:57:19;;;;;;;20.73;7.40;;;25.70;96.70;;;;;;4932729;28;20048;-83
2022/06/24 05:59:47;;;;;;;23.05;7.82;;;25.70;96.70;;;;;;4911173;29;20143;-83
2022/06/24 06:02:18;;;;;;;12.90;6.72;;;25.80;96.70;;;;;;4930806;29;20047;-83
2022/06/24 06:04:47;;;;;;;15.07;5.43;;;25.90;96.70;;;;;;4927121;28;20067;-84
2022/06/24 06:07:14;;;;;;;12.48;5.00;;;25.90;96.70;;;;;;4942687;29;20123;-83
2022/06/24 06:09:42;;;;;;;17.35;5.85;;;25.90;96.70;;;;;;4926571;29;20155;-83
2022/06/24 06:12:11;;;;;;;15.68;5.07;;;25.90;96.70;;;;;;4950069;28;20043;-83
2022/06/24 06:14:39;;;;;;;13.93;4.38;;;25.80;96.70;;;;;;4938485;28;20044;-84
2022/06/24 06:17:07;;;;;;;9.13;3.88;;;25.90;96.70;;;;;;4949741;28;20043;-83
2022/06/24 06:19:37;;;;;;;13.85;4.05;;;25.90;96.70;;;;;;4941622;28;20138;-83
2022/06/24 06:22:05;;;;;;;14.60;4.57;;;26.00;96.70;;;;;;4944659;28;20055;-84
2022/06/24 06:24:33;;;;;;;14.20;4.35;;;26.00;96.70;;;;;;4943117;28;20566;-83
2022/06/24 06:27:01;;;;;;;13.35;4.38;;;26.10;96.70;;;;;;4927028;29;20083;-83
2022/06/24 06:29:28;;;;;;;14.30;3.65;;;26.10;96.70;;;;;;4941623;28;20050;-83
2022/06/24 06:31:56;;;;;;;14.75;4.10;;;26.10;96.70;;;;;;4926258;29;20102;-82
2022/06/24 06:34:24;;;;;;;14.20;4.07;;;26.10;96.70;;;;;;4926170;29;20048;-83
2022/06/24 06:36:54;;;;;;;12.55;3.88;;;26.20;96.70;;;;;;4942047;29;20070;-83
2022/06/24 06:39:22;;;;;;;16.23;3.92;;;26.20;96.70;;;;;;4942592;28;20047;-84
2022/06/24 06:41:49;;;;;;;14.10;3.67;;;26.20;96.70;;;;;;4931173;29;20070;-83
2022/06/24 06:44:17;;;;;;;13.93;3.40;;;26.20;96.70;;;;;;4927700;29;20058;-83
2022/06/24 06:46:45;;;;;;;11.93;3.20;;;26.30;96.70;;;;;;4926329;28;20073;-84
2022/06/24 06:49:13;;;;;;;11.90;3.83;;;26.40;96.70;;;;;;4926523;29;20557;-83
2022/06/24 06:51:41;;;;;;;12.27;3.53;;;26.40;96.70;;;;;;4925998;29;20455;-83
2022/06/24 06:54:11;;;;;;;13.85;3.78;;;26.40;96.70;;;;;;4930232;28;20530;-83
2022/06/24 06:56:40;;;;;;;13.15;3.10;;;26.50;96.70;;;;;;4923883;29;20044;-84
2022/06/24 06:59:07;;;;;;;10.30;3.40;;;26.60;96.70;;;;;;4943749;28;20052;-83
2022/06/24 07:01:35;;;;;;;11.80;3.40;;;26.70;96.70;;;;;;4942266;28;20083;-83
2022/06/24 07:04:04;;;;;;;13.63;3.42;;;26.80;96.70;;;;;;4928992;28;20073;-83
2022/06/24 07:06:31;;;;;;;13.00;3.53;;;26.80;96.70;;;;;;4925640;29;20052;-84
2022/06/24 07:08:59;;;;;;;12.55;2.78;;;26.80;96.70;;;;;;4927001;29;20557;-82
2022/06/24 07:11:28;;;;;;;10.15;2.63;;;26.80;96.70;;;;;;4947908;28;20422;-83
2022/06/24 07:13:56;;;;;;;11.07;3.17;;;26.80;96.70;;;;;;4948981;28;20546;-83
2022/06/24 07:16:24;;;;;;;11.55;3.33;;;26.80;96.70;;;;;;4941664;28;20553;-82
2022/06/24 07:18:52;;;;;;;13.55;3.25;;;26.70;96.70;;;;;;4926660;29;20068;-78
2022/06/24 07:21:20;;;;;;;12.60;2.75;;;26.80;96.70;;;;;;4926252;29;20048;-83
2022/06/24 07:23:48;;;;;;;9.27;2.75;;;26.90;96.70;;;;;;4941634;29;20048;-79
2022/06/24 07:26:16;;;;;;;12.82;3.17;;;26.90;96.70;;;;;;4942199;28;20040;-81
2022/06/24 07:28:46;;;;;;;10.63;3.20;;;27.00;96.70;;;;;;4953425;28;20055;-79
2022/06/24 07:31:15;;;;;;;13.50;3.63;;;27.10;96.70;;;;;;4946122;28;20141;-79
2022/06/24 07:33:43;;;;;;;10.55;3.35;;;27.10;96.70;;;;;;4933982;28;20043;-77
2022/06/24 07:36:11;;;;;;;12.23;4.55;;;27.20;96.70;;;;;;4944958;29;20043;-78
2022/06/24 07:38:39;;;;;;;9.88;2.90;;;27.40;96.70;;;;;;4915077;29;20110;-79
2022/06/24 07:41:09;;;;;;;12.23;2.97;;;27.40;96.70;;;;;;4945110;29;20047;-79
2022/06/24 07:43:37;;;;;;;13.13;2.90;;;27.50;96.70;;;;;;4944226;29;20078;-81
2022/06/24 08:03:05;;;;;;;12.48;3.58;;;27.50;96.70;;;;;;5008303;28;20402;-83
2022/06/24 08:05:34;;;;;;;11.00;3.22;;;27.80;96.70;;;;;;4985274;28;21622;-83
2022/06/24 08:08:03;;;;;;;10.30;2.60;;;27.80;96.70;;;;;;5005756;28;20054;-92
2022/06/24 08:10:31;;;;;;;12.68;3.55;;;27.90;96.70;;;;;;5013864;28;20097;-91
2022/06/24 08:13:11;;;;;;;10.82;2.85;;;28.00;96.70;;;;;;4993508;28;20046;-88
2022/06/24 08:15:39;;;;;;;8.05;2.70;;;28.00;96.70;;;;;;4993765;28;20054;-83
2022/06/24 08:18:09;;;;;;;9.35;2.90;;;28.00;96.70;;;;;;5020177;28;20443;-82
2022/06/24 08:20:37;;;;;;;9.82;2.80;;;28.00;96.70;;;;;;4994736;28;20046;-85
2022/06/24 08:23:06;;;;;;;14.18;3.22;;;27.90;96.70;;;;;;5005681;28;20081;-84
2022/06/24 08:25:34;;;;;;;9.43;3.05;;;27.90;96.70;;;;;;4989284;28;20077;-80
2022/06/24 08:28:02;;;;;;;10.27;2.38;;;28.00;96.70;;;;;;5019727;28;20037;-80
2022/06/24 08:30:31;;;;;;;8.95;2.65;;;28.00;96.70;;;;;;5007211;28;20056;-78
2022/06/24 08:32:59;;;;;;;8.00;2.42;;;28.00;96.70;;;;;;5004833;28;20049;-82
2022/06/24 08:35:29;;;;;;;11.38;2.70;;;28.10;96.70;;;;;;5009680;28;20042;-83
2022/06/24 08:37:59;;;;;;;8.55;2.33;;;28.10;96.70;;;;;;4992251;28;20049;-81
2022/06/24 08:40:29;;;;;;;10.95;2.50;;;28.20;96.70;;;;;;5003110;28;20056;-80
2022/06/24 08:43:00;;;;;;;10.57;2.58;;;28.30;96.70;;;;;;5027843;28;20476;-82
2022/06/24 08:45:28;;;;;;;8.52;2.53;;;28.40;96.70;;;;;;4986995;28;20046;-82
2022/06/24 08:47:57;;;;;;;12.25;2.63;;;28.30;96.70;;;;;;5002574;28;20042;-78
2022/06/24 08:50:25;;;;;;;12.15;3.05;;;28.10;96.70;;;;;;4995137;28;20052;-85
2022/06/24 08:52:56;;;;;;;9.38;2.42;;;28.10;96.70;;;;;;5013610;28;20116;-82
2022/06/24 08:55:26;;;;;;;9.15;2.38;;;28.10;96.70;;;;;;5003775;28;20576;-83
2022/06/24 08:57:54;;;;;;;12.18;2.58;;;28.10;96.70;;;;;;5011319;28;20121;-83
2022/06/24 09:00:23;;;;;;;9.35;3.20;;;28.00;96.70;;;;;;5003189;28;20065;-83
2022/06/24 09:02:51;;;;;;;8.88;2.45;;;28.00;96.70;;;;;;4995571;28;20062;-83
2022/06/24 09:05:21;;;;;;;9.20;2.53;;;28.10;96.70;;;;;;4989296;28;20050;-86
2022/06/24 09:08:03;;;;;;;9.63;2.50;;;28.20;96.70;;;;;;4941941;28;20047;-83
2022/06/24 09:10:32;;;;;;;10.27;2.47;;;28.40;96.70;;;;;;4973936;28;20078;-82
2022/06/24 09:13:01;;;;;;;8.88;2.75;;;28.60;96.70;;;;;;4973533;28;20093;-83
2022/06/24 09:15:30;;;;;;;8.82;2.30;;;28.60;96.70;;;;;;4980811;28;20058;-82
2022/06/24 09:17:59;;;;;;;14.32;3.40;;;28.50;96.70;;;;;;4993179;28;20109;-75
2022/06/24 09:20:30;;;;;;;13.68;2.85;;;28.50;96.70;;;;;;4998925;28;20145;-78
2022/06/24 09:23:05;;;;;;;8.73;2.50;;;28.60;96.70;;;;;;4972319;28;20518;-77
2022/06/24 09:25:45;;;;;;;6.50;2.13;;;28.70;96.70;;;;;;4972331;28;20085;-76
2022/06/24 09:28:21;;;;;;;12.77;2.80;;;28.80;96.70;;;;;;4991024;28;20669;-78
2022/06/24 09:30:50;;;;;;;9.33;2.60;;;28.80;96.70;;;;;;4991962;28;20045;-78
2022/06/24 09:33:19;;;;;;;8.77;2.20;;;28.90;96.70;;;;;;4986986;28;20093;-77
2022/06/24 09:36:00;;;;;;;8.15;2.25;;;29.10;96.70;;;;;;4989486;28;20090;-79
2022/06/24 09:38:31;;;;;;;9.10;2.30;;;29.10;96.70;;;;;;4987259;28;20058;-76
2022/06/24 09:41:01;;;;;;;12.35;2.85;;;29.00;96.70;;;;;;4995534;28;20160;-77
2022/06/24 09:43:32;;;;;;;8.50;2.20;;;28.90;96.70;;;;;;4986232;28;20053;-78
2022/06/24 09:46:01;;;;;;;11.57;2.90;;;28.90;96.70;;;;;;4992102;28;20045;-77
2022/06/24 09:48:32;;;;;;;7.47;2.08;;;28.90;96.70;;;;;;4994849;28;20046;-77
2022/06/24 09:51:02;;;;;;;7.70;1.98;;;28.90;96.70;;;;;;4990531;28;20047;-77
2022/06/24 09:53:37;;;;;;;11.38;2.67;;;28.90;96.70;;;;;;4981068;28;20385;-77
2022/06/24 09:56:09;;;;;;;10.82;2.60;;;29.10;96.70;;;;;;4996726;28;20034;-77
2022/06/24 09:58:38;;;;;;;7.38;1.95;;;29.10;96.70;;;;;;4992177;28;20052;-79
2022/06/24 10:01:07;;;;;;;8.68;2.15;;;29.20;96.70;;;;;;4997467;28;20057;-79
2022/06/24 10:03:37;;;;;;;5.75;2.20;;;29.30;96.70;;;;;;4973098;28;20934;-76
2022/06/24 10:06:10;;;;;;;6.80;1.80;;;29.30;96.70;;;;;;4986022;28;20499;-76
2022/06/24 10:08:42;;;;;;;9.02;2.38;;;29.30;96.70;;;;;;4996239;28;20069;-76
2022/06/24 10:11:33;;;;;;;8.95;2.35;;;29.30;96.70;;;;;;4982149;28;20061;-76
2022/06/24 10:14:01;;;;;;;7.40;2.45;;;29.30;96.70;;;;;;4991020;28;20046;-78
2022/06/24 10:16:31;;;;;;;9.05;2.13;;;29.20;96.70;;;;;;4992304;28;20575;-79
2022/06/24 10:19:01;;;;;;;4.78;1.30;;;29.20;96.70;;;;;;4974001;28;20538;-79
2022/06/24 10:21:30;;;;;;;6.57;1.52;;;29.40;96.70;;;;;;4968726;28;20042;-79
2022/06/24 10:24:11;;;;;;;6.97;1.77;;;29.60;96.70;;;;;;4994979;28;20448;-78
2022/06/24 10:26:43;;;;;;;9.13;1.92;;;29.60;96.70;;;;;;4988877;28;20121;-77
2022/06/24 10:29:21;;;;;;;5.43;1.52;;;29.70;96.70;;;;;;4989531;28;20758;-78
2022/06/24 10:32:07;;;;;;;9.30;1.95;;;29.80;96.70;;;;;;4938158;28;20603;-77
2022/06/24 10:34:44;;;;;;;7.80;2.20;;;29.90;96.70;;;;;;4985341;28;20704;-76
2022/06/24 10:37:30;;;;;;;9.90;2.00;;;30.00;96.70;;;;;;4991627;28;20050;-78
2022/06/24 10:40:33;;;;;;;6.53;1.75;;;30.00;96.70;;;;;;4958858;28;20577;-77
2022/06/24 10:43:05;;;;;;;8.45;1.52;;;30.10;96.70;;;;;;4993075;28;20134;-78
2022/06/24 10:45:37;;;;;;;8.40;1.95;;;30.20;96.70;;;;;;4992123;28;20049;-77
2022/06/24 10:48:06;;;;;;;5.57;1.67;;;30.30;96.70;;;;;;4981044;28;20046;-78
2022/06/24 10:50:36;;;;;;;5.70;1.63;;;30.20;96.70;;;;;;4985369;28;20050;-78
2022/06/24 10:53:06;;;;;;;5.70;1.52;;;30.30;96.70;;;;;;4989840;28;20050;-78
2022/06/24 10:55:38;;;;;;;5.70;1.50;;;30.40;96.70;;;;;;4990867;28;20046;-79
2022/06/24 10:58:16;;;;;;;6.03;1.55;;;30.50;96.70;;;;;;4978767;28;20046;-78
2022/06/24 11:00:50;;;;;;;8.68;1.55;;;30.50;96.70;;;;;;4985773;28;20515;-78
2022/06/24 11:03:30;;;;;;;6.22;1.60;;;30.50;96.70;;;;;;4984983;28;20047;-76
2022/06/24 11:05:59;;;;;;;5.93;1.70;;;30.60;96.70;;;;;;4963694;28;20177;-77
2022/06/24 11:08:28;;;;;;;8.43;1.90;;;30.50;96.70;;;;;;4990871;28;20040;-77
2022/06/24 11:10:58;;;;;;;5.30;1.50;;;30.80;96.70;;;;;;4991559;28;20053;-77
2022/06/24 11:13:26;;;;;;;6.70;1.70;;;30.80;96.70;;;;;;4990558;28;20481;-77
2022/06/24 11:15:58;;;;;;;7.32;1.45;;;30.90;96.70;;;;;;4990446;28;20534;-77
2022/06/24 11:18:30;;;;;;;7.53;1.40;;;31.00;96.70;;;;;;4969208;28;20412;-78
2022/06/24 11:21:01;;;;;;;5.82;1.52;;;31.00;96.70;;;;;;4985640;28;20129;-78
2022/06/24 11:23:33;;;;;;;5.68;1.58;;;31.00;96.70;;;;;;4972414;28;20424;-78
2022/06/24 11:26:09;;;;;;;9.23;1.95;;;31.00;96.70;;;;;;4988921;28;20058;-78
2022/06/24 11:28:39;;;;;;;6.18;1.55;;;31.20;96.70;;;;;;4980896;28;20073;-78
2022/06/24 11:31:28;;;;;;;7.57;2.15;;;31.50;96.70;;;;;;4988406;28;20050;-77
2022/06/24 11:34:09;;;;;;;4.65;1.30;;;31.40;96.70;;;;;;4988817;28;20042;-77
2022/06/24 11:36:42;;;;;;;10.68;2.17;;;31.40;96.70;;;;;;4986000;28;20050;-77
2022/06/24 11:39:13;;;;;;;8.88;1.98;;;31.50;96.70;;;;;;4967630;28;20113;-78
2022/06/24 11:41:47;;;;;;;6.25;1.73;;;31.40;96.70;;;;;;4988660;28;20155;-78
2022/06/24 11:44:32;;;;;;;6.47;1.92;;;31.60;96.70;;;;;;4989172;28;20054;-78
2022/06/24 11:47:06;;;;;;;6.22;1.63;;;31.60;96.70;;;;;;4990560;28;20492;-78
2022/06/24 11:49:37;;;;;;;7.95;1.50;;;31.50;96.70;;;;;;4992741;28;20053;-77
2022/06/24 11:52:09;;;;;;;6.68;1.98;;;31.50;96.70;;;;;;4983662;28;20058;-77
2022/06/24 11:57:43;;;;;;;4.68;1.50;;;31.70;96.20;;;;;;4986890;28;20049;-77
2022/06/24 12:00:13;;;;;;;7.88;1.90;;;31.70;96.70;;;;;;4980831;28;20066;-78
2022/06/24 12:02:42;;;;;;;6.90;1.90;;;31.70;96.70;;;;;;4990589;28;20057;-78
2022/06/24 12:05:11;;;;;;;7.70;2.35;;;31.70;96.70;;;;;;4974215;28;20043;-77
2022/06/24 12:07:39;;;;;;;6.65;1.73;;;31.80;96.50;;;;;;4989615;28;20041;-78
2022/06/24 12:10:08;;;;;;;6.72;1.38;;;31.70;95.80;;;;;;4996054;28;20042;-78
2022/06/24 12:15:52;;;;;;;9.13;2.17;;;31.80;95.50;;;;;;4989640;28;20070;-78
2022/06/24 12:18:22;;;;;;;9.25;1.65;;;31.80;95.80;;;;;;4988003;28;20684;-77
2022/06/24 12:20:58;;;;;;;7.07;1.98;;;31.90;96.60;;;;;;4984455;28;20043;-77
2022/06/24 12:23:35;;;;;;;7.07;1.60;;;31.90;96.00;;;;;;4989905;28;20043;-77
2022/06/24 12:26:16;;;;;;;7.43;1.58;;;31.90;94.80;;;;;;4988831;28;20050;-77
2022/06/24 12:28:59;;;;;;;5.57;1.48;;;32.00;92.50;;;;;;4981999;28;20057;-77
2022/06/24 12:31:28;;;;;;;7.78;1.73;;;32.20;94.30;;;;;;4986480;28;20042;-77
2022/06/24 12:34:08;;;;;;;8.50;1.90;;;32.10;93.90;;;;;;4994055;28;20050;-77
2022/06/24 12:36:41;;;;;;;8.77;2.05;;;32.30;92.90;;;;;;4987940;28;20046;-78
2022/06/24 12:39:11;;;;;;;9.73;2.03;;;32.30;94.40;;;;;;4982926;28;20459;-77
2022/06/24 12:41:44;;;;;;;8.15;1.85;;;32.20;94.60;;;;;;4974534;28;20045;-77
2022/06/24 12:44:16;;;;;;;5.95;1.70;;;32.30;95.00;;;;;;4992033;28;20125;-77
2022/06/24 12:52:38;;;;;;;9.20;2.13;;;32.30;94.00;;;;;;4990006;28;20452;-76
2022/06/24 12:55:09;;;;;;;3.95;1.60;;;32.40;93.60;;;;;;4978510;28;20053;-78
2022/06/24 12:57:38;;;;;;;6.57;2.13;;;32.50;93.80;;;;;;4993938;28;20042;-78
2022/06/24 13:00:10;;;;;;;9.60;2.25;;;32.60;93.40;;;;;;4985506;28;20307;-77
2022/06/24 13:02:43;;;;;;;8.23;1.77;;;32.80;93.30;;;;;;4963693;28;20496;-78
2022/06/24 13:05:12;;;;;;;9.07;2.22;;;32.80;93.40;;;;;;4990795;28;20052;-78
2022/06/24 13:07:41;;;;;;;7.95;2.10;;;32.90;93.90;;;;;;4992108;28;20057;-78
2022/06/24 13:10:10;;;;;;;5.88;1.58;;;33.10;93.30;;;;;;4972480;28;20448;-77
2022/06/24 13:12:39;;;;;;;11.00;2.00;;;33.00;92.10;;;;;;5002023;28;20137;-78
2022/06/24 13:15:10;;;;;;;8.95;2.22;;;32.90;92.30;;;;;;4987809;28;20065;-77
2022/06/24 13:17:39;;;;;;;9.00;2.35;;;33.00;93.00;;;;;;5004661;28;20049;-79
2022/06/24 13:20:10;;;;;;;5.13;1.23;;;33.30;93.10;;;;;;4971020;28;20065;-79
2022/06/24 13:22:39;;;;;;;9.07;1.80;;;33.50;91.20;;;;;;4993792;28;20049;-79
2022/06/24 13:25:08;;;;;;;7.10;1.73;;;33.60;92.40;;;;;;4987090;28;20108;-78
2022/06/24 13:27:38;;;;;;;11.02;2.47;;;33.70;92.10;;;;;;4987470;28;20051;-78
2022/06/24 13:30:11;;;;;;;11.98;2.58;;;33.70;91.70;;;;;;4989779;28;20058;-79
2022/06/24 13:32:40;;;;;;;6.40;2.05;;;33.70;92.10;;;;;;4969662;28;20046;-79
2022/06/24 13:35:09;;;;;;;7.05;1.95;;;33.70;92.70;;;;;;4976189;28;20475;-79
2022/06/24 13:37:38;;;;;;;7.22;2.08;;;33.80;92.50;;;;;;4969921;28;20442;-78